Terminal Aerodrome Forecast
Issued by NWS

Home | Current Version | Previous Version | Text Only | Print | Product List | Glossary On
Versions: 1 2 3 4 5 6 7 8 9 10 11 12 13 14 15 16 17 18 19 20 21 22 23 24 25
000
FTUS45 KGJT 011734
TAFVEL
TAF
KVEL 011734Z 0118/0218 14005KT P6SM FEW110 SCT150
     FM012000 22007KT P6SM VCTS SCT110CB BKN200
      TEMPO 0121/0124 -TSRA BKN080CB BKN100
     FM020200 26004KT P6SM FEW110 SCT200=

USA.gov is the U.S. government's official web portal to all federal, state and local government web resources and services.